Time;durP1;ratioP1;P1;durP2;ratioP2;P2;SDS_P1;SDS_P2;PMS_P1;PMS_P2;Temp;Humidity;BMP_temperature;BMP_pressure;BME280_temperature;BME280_humidity;BME280_pressure;Samples;Min_cycle;Max_cycle;Signal;HPM_P1;HPM_P2
2020/12/18 00:01:29;;;;;;;8.15;2.58;;;;;;;6.02;88.62;100872.91;5076644;28;20287;-73
2020/12/18 00:03:57;;;;;;;6.15;2.45;;;;;;;6.12;88.46;100890.28;5076897;28;20048;-73
2020/12/18 00:06:26;;;;;;;10.23;2.60;;;;;;;6.09;88.78;100893.03;5076803;28;20063;-74
2020/12/18 00:08:52;;;;;;;6.32;2.67;;;;;;;6.10;88.45;100889.47;5075455;28;20072;-74
2020/12/18 00:11:23;;;;;;;7.60;2.45;;;;;;;6.09;88.72;100882.41;5076662;28;20063;-73
2020/12/18 00:13:51;;;;;;;6.32;2.75;;;;;;;6.07;88.35;100895.75;5076356;28;20125;-74
2020/12/18 00:16:18;;;;;;;12.70;2.90;;;;;;;6.05;88.78;100892.25;5076418;28;20441;-73
2020/12/18 00:18:45;;;;;;;10.85;2.50;;;;;;;6.08;88.45;100886.88;5075598;28;20040;-73
2020/12/18 00:21:16;;;;;;;13.18;2.90;;;;;;;5.90;88.43;100867.06;5076582;28;20389;-74
2020/12/18 00:23:43;;;;;;;;;;;;;;;6.10;88.40;100889.47;5076551;28;20437;-74
2020/12/18 00:26:09;;;;;;;8.82;2.03;;;;;;;6.09;88.14;100896.56;5075995;28;19920;-74
2020/12/18 00:28:35;;;;;;;11.32;2.40;;;;;;;6.04;88.23;100887.88;5075241;28;20044;-71
2020/12/18 00:31:01;;;;;;;6.55;2.28;;;;;;;6.13;88.17;100893.81;5076110;28;20106;-74
2020/12/18 00:33:28;;;;;;;8.40;2.25;;;;;;;6.00;88.25;100883.56;5075840;28;20102;-74
2020/12/18 00:35:54;;;;;;;15.23;2.75;;;;;;;6.13;88.10;100899.09;5076007;28;20371;-72
2020/12/18 00:38:20;;;;;;;8.65;2.47;;;;;;;6.00;88.11;100883.56;5075735;28;20106;-72
2020/12/18 00:40:47;;;;;;;11.80;2.45;;;;;;;6.07;88.08;100893.09;5076077;28;20509;-74
2020/12/18 00:43:13;;;;;;;8.98;2.28;;;;;;;6.06;88.51;100898.44;5075735;28;20129;-74
2020/12/18 00:45:39;;;;;;;10.68;2.30;;;;;;;6.04;88.52;100893.16;5075856;28;20338;-74
2020/12/18 00:48:05;;;;;;;6.20;2.38;;;;;;;6.07;88.16;100889.56;5075878;28;20052;-74
2020/12/18 00:50:33;;;;;;;5.43;2.10;;;;;;;6.12;88.13;100900.91;5074693;28;20048;-74
2020/12/18 00:52:59;;;;;;;7.20;2.35;;;;;;;5.96;88.28;100876.59;5075605;28;20365;-75
2020/12/18 00:55:25;;;;;;;11.25;2.40;;;;;;;5.95;88.24;100878.38;5074458;28;20048;-74
2020/12/18 00:57:51;;;;;;;7.72;2.00;;;;;;;6.03;88.28;100896.75;5075650;28;20052;-74
2020/12/18 01:00:18;;;;;;;8.20;3.00;;;;;;;6.07;88.42;100895.75;5075855;28;20048;-74
2020/12/18 01:02:44;;;;;;;6.25;2.50;;;;;;;6.02;88.25;100878.19;5074412;28;20441;-74
2020/12/18 01:05:10;;;;;;;8.10;2.40;;;;;;;6.05;88.07;100886.94;5075728;28;20106;-74
2020/12/18 01:07:36;;;;;;;8.27;2.10;;;;;;;6.06;88.49;100883.38;5075551;28;20048;-74
2020/12/18 01:10:02;;;;;;;7.03;2.45;;;;;;;5.98;88.74;100880.06;5075288;28;20426;-74
2020/12/18 01:12:29;;;;;;;6.78;1.98;;;;;;;6.06;87.97;100880.72;5075439;28;20052;-74
2020/12/18 01:14:55;;;;;;;8.93;2.30;;;;;;;6.01;88.77;100880.00;5075235;28;20052;-74
2020/12/18 01:17:21;;;;;;;6.28;1.95;;;;;;;5.92;88.90;100864.34;5075427;28;20109;-74
2020/12/18 01:19:47;;;;;;;6.47;2.05;;;;;;;5.94;88.99;100866.06;5074033;28;20056;-74
2020/12/18 01:22:13;;;;;;;6.57;2.17;;;;;;;6.00;88.42;100882.69;5075274;28;20098;-74
2020/12/18 01:24:40;;;;;;;7.97;2.08;;;;;;;5.99;88.07;100876.50;5075229;28;20098;-74
2020/12/18 01:27:06;;;;;;;8.95;2.30;;;;;;;6.01;88.27;100876.47;5075180;28;20056;-74
2020/12/18 01:29:32;;;;;;;6.45;1.98;;;;;;;5.96;88.59;100873.97;5075039;28;20051;-74
2020/12/18 01:31:58;;;;;;;9.05;2.50;;;;;;;5.94;88.59;100878.44;5075040;28;20063;-74
2020/12/18 01:34:24;;;;;;;11.40;2.38;;;;;;;5.88;88.65;100873.34;5075086;28;20045;-74
2020/12/18 01:36:51;;;;;;;9.25;2.13;;;;;;;5.87;88.87;100877.75;5075054;28;20396;-74
2020/12/18 01:39:17;;;;;;;5.18;2.42;;;;;;;5.93;88.59;100884.63;5075100;28;20048;-74
2020/12/18 01:41:43;;;;;;;9.40;2.10;;;;;;;5.73;88.93;100872.00;5075223;28;20049;-74
2020/12/18 01:44:09;;;;;;;11.43;2.33;;;;;;;5.89;88.44;100885.66;5075160;28;20052;-74
2020/12/18 01:46:38;;;;;;;4.75;2.30;;;;;;;5.89;88.53;100890.97;5075130;28;20102;-74
2020/12/18 01:49:05;;;;;;;7.38;2.17;;;;;;;5.93;88.14;100887.28;5075128;28;20051;-74
2020/12/18 01:51:47;;;;;;;7.72;2.45;;;;;;;5.96;88.36;100885.44;5075441;28;20052;-74
2020/12/18 01:54:14;;;;;;;6.50;1.83;;;;;;;6.00;88.20;100888.88;5075031;28;20060;-74
2020/12/18 01:56:40;;;;;;;12.25;2.33;;;;;;;5.97;88.00;100881.00;5075015;28;20064;-74
2020/12/18 01:59:08;;;;;;;5.15;2.03;;;;;;;5.96;87.86;100882.78;5074818;28;20056;-74
2020/12/18 02:01:34;;;;;;;7.28;2.20;;;;;;;5.91;87.81;100882.06;5074775;28;20331;-74
2020/12/18 02:04:01;;;;;;;8.10;2.17;;;;;;;5.99;87.68;100887.09;5073631;28;20444;-74
2020/12/18 02:06:31;;;;;;;6.18;2.00;;;;;;;5.93;87.96;100881.97;5073781;28;20056;-74
2020/12/18 02:08:57;;;;;;;8.15;2.20;;;;;;;5.97;87.96;100881.00;5075156;28;20648;-74
2020/12/18 02:11:24;;;;;;;5.55;3.05;;;;;;;5.93;88.07;100879.34;5073650;28;20056;-73
2020/12/18 02:13:52;;;;;;;4.07;1.83;;;;;;;5.93;88.10;100879.34;5074316;28;20095;-73
2020/12/18 02:16:18;;;;;;;10.93;2.22;;;;;;;5.92;88.07;100875.84;5074821;28;20056;-72
2020/12/18 02:18:48;;;;;;;9.10;2.20;;;;;;;6.00;87.54;100882.69;5074348;28;20049;-72
2020/12/18 02:21:15;;;;;;;6.68;2.15;;;;;;;5.94;87.75;100873.16;5075018;28;20074;-73
2020/12/18 02:23:43;;;;;;;10.25;2.50;;;;;;;5.95;88.00;100874.88;5074822;28;20048;-73
2020/12/18 02:26:10;;;;;;;9.98;2.17;;;;;;;5.89;87.89;100873.25;5074544;28;20060;-73
2020/12/18 02:28:41;;;;;;;9.68;2.30;;;;;;;5.78;88.14;100867.44;5074687;28;20055;-73
2020/12/18 02:31:09;;;;;;;6.32;2.20;;;;;;;5.81;88.25;100864.69;5074342;28;20049;-73
2020/12/18 02:33:36;;;;;;;9.45;1.92;;;;;;;5.85;88.07;100869.00;5074682;28;20052;-73
2020/12/18 02:36:04;;;;;;;8.82;2.03;;;;;;;5.87;88.02;100869.81;5074557;28;20048;-73
2020/12/18 02:38:31;;;;;;;7.63;1.70;;;;;;;5.87;88.33;100853.91;5074388;28;20055;-73
2020/12/18 02:40:57;;;;;;;9.43;2.03;;;;;;;5.90;87.95;100847.66;5074646;28;20095;-72
2020/12/18 02:43:26;;;;;;;10.73;2.08;;;;;;;5.92;88.07;100861.69;5077495;28;20052;-72
2020/12/18 02:45:52;;;;;;;8.98;2.03;;;;;;;5.78;88.19;100851.53;5078591;28;20053;-73
2020/12/18 02:48:19;;;;;;;6.95;1.75;;;;;;;5.84;88.60;100854.00;5077214;28;20110;-72
2020/12/18 02:50:49;;;;;;;13.63;2.70;;;;;;;5.79;88.56;100854.16;5078173;28;20370;-74
2020/12/18 02:53:18;;;;;;;6.10;1.70;;;;;;;5.89;87.95;100857.38;5078390;28;20342;-73
2020/12/18 02:55:46;;;;;;;7.20;2.22;;;;;;;5.84;88.14;100861.97;5076699;28;20459;-72
2020/12/18 02:58:13;;;;;;;8.02;2.13;;;;;;;5.85;88.47;100861.88;5077156;28;20044;-73
2020/12/18 03:00:40;;;;;;;10.32;1.50;;;;;;;5.95;88.05;100861.63;5076985;28;20137;-72
2020/12/18 03:03:07;;;;;;;6.38;1.75;;;;;;;5.90;88.06;100864.44;5077869;28;20323;-73
2020/12/18 03:05:34;;;;;;;5.22;1.45;;;;;;;5.85;88.09;100861.03;5076689;28;20052;-73
2020/12/18 03:08:01;;;;;;;8.80;1.48;;;;;;;5.83;87.80;100861.06;5077992;28;20105;-71
2020/12/18 03:10:28;;;;;;;5.43;1.38;;;;;;;5.78;87.92;100855.03;5077617;28;20121;-73
2020/12/18 03:12:54;;;;;;;7.35;2.10;;;;;;;5.73;88.42;100856.97;5077795;28;20067;-74
2020/12/18 03:15:20;;;;;;;6.78;2.05;;;;;;;5.72;88.27;100849.91;5077474;28;20126;-73
2020/12/18 03:17:47;;;;;;;6.97;2.15;;;;;;;5.68;88.47;100856.25;5077590;28;20052;-74
2020/12/18 03:20:13;;;;;;;7.78;1.50;;;;;;;5.58;88.51;100850.34;5077381;28;20122;-73
2020/12/18 03:22:45;;;;;;;5.63;1.50;;;;;;;5.62;88.90;100854.63;5076595;28;20055;-72
2020/12/18 03:25:11;;;;;;;6.57;2.03;;;;;;;5.60;88.96;100847.66;5076197;28;20371;-72
2020/12/18 03:27:42;;;;;;;7.78;1.63;;;;;;;5.56;88.76;100847.72;5077557;28;20048;-73
2020/12/18 03:30:08;;;;;;;6.50;1.83;;;;;;;5.54;89.19;100846.91;5077572;28;20113;-74
2020/12/18 03:32:36;;;;;;;6.18;1.90;;;;;;;5.51;88.99;100844.34;5076325;28;20501;-73
2020/12/18 03:35:05;;;;;;;5.28;1.55;;;;;;;5.47;89.34;100853.31;5077418;28;20094;-72
2020/12/18 03:37:32;;;;;;;4.07;1.30;;;;;;;5.46;89.27;100853.34;5075983;28;20369;-73
2020/12/18 03:39:58;;;;;;;7.25;2.00;;;;;;;5.33;89.60;100821.91;5076952;28;20063;-73
2020/12/18 03:42:27;;;;;;;4.93;1.80;;;;;;;5.47;89.26;100847.13;5077208;28;20091;-75
2020/12/18 03:44:53;;;;;;;7.18;1.70;;;;;;;5.45;89.03;100833.94;5077261;28;20052;-72
2020/12/18 03:47:19;;;;;;;5.40;1.60;;;;;;;5.51;89.11;100840.84;5077139;28;20061;-72
2020/12/18 03:49:45;;;;;;;9.75;2.08;;;;;;;5.50;89.29;100841.75;5075877;28;20040;-72
2020/12/18 03:52:11;;;;;;;8.13;1.88;;;;;;;5.51;89.23;100841.69;5077108;28;20389;-72
2020/12/18 03:54:37;;;;;;;14.75;2.63;;;;;;;5.52;88.95;100840.81;5077060;28;20053;-73
2020/12/18 03:57:04;;;;;;;11.27;2.35;;;;;;;5.57;88.78;100845.97;5077018;28;20078;-73
2020/12/18 03:59:30;;;;;;;2.90;1.30;;;;;;;5.50;88.85;100816.13;5076684;28;20049;-73
2020/12/18 04:01:56;;;;;;;8.98;1.90;;;;;;;5.50;88.67;100833.81;5076836;28;20068;-73
2020/12/18 04:04:22;;;;;;;8.10;1.50;;;;;;;5.56;89.10;100841.59;5076963;28;20045;-73
2020/12/18 04:06:49;;;;;;;8.65;1.42;;;;;;;5.53;89.00;100837.25;5076781;28;20053;-73
2020/12/18 04:09:16;;;;;;;5.45;1.33;;;;;;;5.53;89.06;100836.38;5076503;28;20045;-73
2020/12/18 04:11:44;;;;;;;7.70;1.83;;;;;;;5.49;88.87;100835.59;5076369;28;20052;-73
2020/12/18 04:14:11;;;;;;;8.77;1.90;;;;;;;5.47;88.89;100837.41;5076364;28;20076;-73
2020/12/18 04:16:37;;;;;;;9.60;1.40;;;;;;;5.43;89.02;100830.47;5076463;28;20345;-73
2020/12/18 04:19:03;;;;;;;5.85;1.65;;;;;;;5.11;89.00;100795.19;5076273;28;20090;-74
2020/12/18 04:21:30;;;;;;;5.95;1.60;;;;;;;5.35;89.58;100824.53;5076405;28;20066;-73
2020/12/18 04:23:56;;;;;;;6.55;1.48;;;;;;;5.41;89.22;100832.28;5076140;28;20056;-74
2020/12/18 04:26:23;;;;;;;4.80;1.45;;;;;;;5.39;89.28;100824.41;5076326;28;20061;-72
2020/12/18 04:28:49;;;;;;;7.00;1.40;;;;;;;5.40;89.32;100819.97;5076171;28;20110;-72
2020/12/18 04:31:16;;;;;;;5.38;1.45;;;;;;;5.28;89.10;100808.81;5076069;28;20060;-72
2020/12/18 04:33:44;;;;;;;7.53;1.60;;;;;;;5.34;89.35;100818.34;5075820;28;20052;-72
2020/12/18 04:36:10;;;;;;;8.82;1.50;;;;;;;5.38;89.44;100811.19;5075996;28;20048;-72
2020/12/18 04:38:36;;;;;;;6.72;1.77;;;;;;;5.50;89.42;100816.13;5075797;28;20373;-72
2020/12/18 04:41:03;;;;;;;6.32;1.45;;;;;;;5.49;88.98;100808.25;5074839;28;20079;-72
2020/12/18 04:43:29;;;;;;;3.72;1.45;;;;;;;5.43;89.13;100804.00;5075669;28;20482;-73
2020/12/18 04:45:57;;;;;;;6.13;1.60;;;;;;;5.48;89.11;100810.03;5075294;28;20362;-72
2020/12/18 04:48:28;;;;;;;8.38;1.65;;;;;;;5.56;89.34;100809.81;5076011;28;20048;-73
2020/12/18 04:50:56;;;;;;;8.27;1.80;;;;;;;5.51;89.39;100807.28;5075646;28;20136;-74
2020/12/18 04:53:36;;;;;;;9.70;2.53;;;;;;;5.43;89.04;100806.63;5060276;28;20422;-73
2020/12/18 04:56:09;;;;;;;8.25;1.77;;;;;;;5.47;89.58;100802.13;5075681;28;20060;-73
2020/12/18 04:58:37;;;;;;;5.53;1.40;;;;;;;5.65;89.04;100806.00;5075316;28;20384;-73
2020/12/18 05:01:04;;;;;;;6.95;1.50;;;;;;;5.70;89.08;100817.31;5075517;28;20056;-73
2020/12/18 05:03:33;;;;;;;7.93;1.92;;;;;;;5.70;89.35;100812.91;5075299;28;20335;-73
2020/12/18 05:06:03;;;;;;;10.65;4.40;;;;;;;5.71;89.12;100809.34;5075038;28;20056;-73
2020/12/18 05:08:31;;;;;;;5.93;1.55;;;;;;;5.71;88.72;100806.69;5075526;28;20052;-73
2020/12/18 05:10:59;;;;;;;7.43;1.65;;;;;;;5.79;88.58;100813.53;5075496;28;20056;-72
2020/12/18 05:13:25;;;;;;;8.80;1.55;;;;;;;5.81;88.55;100814.34;5074094;28;20461;-73
2020/12/18 05:15:52;;;;;;;6.40;1.30;;;;;;;5.81;88.49;100809.94;5075384;28;20063;-73
2020/12/18 05:18:21;;;;;;;9.82;1.40;;;;;;;5.88;88.26;100818.53;5075500;28;20418;-72
2020/12/18 05:20:48;;;;;;;6.68;1.27;;;;;;;5.82;88.21;100803.72;5075141;28;20063;-73
2020/12/18 05:23:14;;;;;;;5.78;1.42;;;;;;;5.88;88.07;100809.75;5074308;28;20048;-73
2020/12/18 05:25:41;;;;;;;4.88;1.23;;;;;;;5.84;87.98;100807.19;5075395;28;20354;-73
2020/12/18 05:28:17;;;;;;;6.75;1.40;;;;;;;5.88;88.25;100810.59;5074018;28;20057;-72
2020/12/18 05:30:46;;;;;;;5.75;1.33;;;;;;;5.93;88.19;100813.09;5075381;28;20052;-73
2020/12/18 05:33:13;;;;;;;7.72;1.40;;;;;;;5.92;87.46;100800.78;5074148;28;20097;-73
2020/12/18 05:35:40;;;;;;;6.72;1.30;;;;;;;5.76;88.24;100797.72;5075331;28;20135;-72
2020/12/18 05:38:07;;;;;;;8.60;1.85;;;;;;;5.64;88.62;100785.72;5074962;28;20141;-72
2020/12/18 05:40:33;;;;;;;5.22;1.45;;;;;;;5.77;88.46;100810.94;5075004;28;20040;-72
2020/12/18 05:43:07;;;;;;;8.95;1.52;;;;;;;5.77;88.29;100797.69;5074001;28;20060;-71
2020/12/18 05:45:37;;;;;;;6.22;1.42;;;;;;;5.78;88.13;100806.50;5074697;28;20106;-72
2020/12/18 05:48:03;;;;;;;9.00;1.33;;;;;;;5.81;88.42;100809.06;5074863;28;20056;-73
2020/12/18 05:50:37;;;;;;;9.27;1.95;;;;;;;5.81;88.21;100814.34;5075132;28;20057;-72
2020/12/18 05:53:05;;;;;;;5.10;1.65;;;;;;;5.88;88.32;100815.91;5075043;28;20045;-72
2020/12/18 05:55:45;;;;;;;8.30;1.75;;;;;;;5.84;88.23;100820.41;5074713;28;20098;-73
2020/12/18 05:58:14;;;;;;;5.75;1.45;;;;;;;5.82;88.18;100819.59;5075108;28;20068;-74
2020/12/18 06:00:42;;;;;;;6.25;2.05;;;;;;;5.80;88.36;100809.97;5075017;28;20055;-73
2020/12/18 06:03:10;;;;;;;9.35;2.22;;;;;;;5.82;88.44;100819.59;5057028;28;20190;-73
2020/12/18 06:05:38;;;;;;;5.93;1.33;;;;;;;5.79;88.76;100809.13;5075143;28;20056;-73
2020/12/18 06:08:16;;;;;;;9.35;1.60;;;;;;;5.76;88.45;100810.97;5075111;28;20082;-74
2020/12/18 06:10:44;;;;;;;4.50;1.63;;;;;;;5.87;88.24;100816.81;5074933;28;20123;-73
2020/12/18 06:13:10;;;;;;;5.85;1.70;;;;;;;5.84;88.16;100796.56;5074317;28;20053;-72
2020/12/18 06:15:36;;;;;;;10.10;2.22;;;;;;;5.97;87.83;100799.72;5074449;28;20060;-71
2020/12/18 06:18:04;;;;;;;7.20;1.60;;;;;;;5.99;87.96;100799.66;5076026;28;20060;-72
2020/12/18 06:20:35;;;;;;;6.18;1.80;;;;;;;6.01;87.63;100789.91;5078802;28;20098;-73
2020/12/18 06:23:03;;;;;;;6.18;1.60;;;;;;;5.97;87.85;100783.84;5078816;28;20056;-72
2020/12/18 06:25:30;;;;;;;11.23;1.88;;;;;;;6.04;87.88;100778.38;5078744;28;20060;-73
2020/12/18 06:27:58;;;;;;;7.45;1.80;;;;;;;5.89;87.52;100742.59;5078596;28;20052;-72
2020/12/18 06:30:26;;;;;;;7.22;1.70;;;;;;;6.05;87.97;100786.25;5078737;28;20053;-73
2020/12/18 06:32:53;;;;;;;5.82;1.52;;;;;;;6.07;87.86;100773.84;5078350;28;20139;-72
2020/12/18 06:35:32;;;;;;;9.27;1.98;;;;;;;6.06;87.90;100782.69;5078150;28;20053;-73
2020/12/18 06:38:18;;;;;;;12.88;2.08;;;;;;;6.05;88.02;100770.34;5078679;28;20052;-72
2020/12/18 06:40:44;;;;;;;4.47;1.90;;;;;;;6.07;87.82;100760.59;5078203;28;20053;-72
2020/12/18 06:43:11;;;;;;;4.03;1.55;;;;;;;6.11;87.42;100754.25;5078174;28;20052;-72
2020/12/18 06:45:37;;;;;;;7.18;2.10;;;;;;;6.16;87.50;100758.53;5078446;28;20049;-72
2020/12/18 06:48:26;;;;;;;7.00;1.83;;;;;;;6.13;87.81;100767.47;5078240;28;20061;-72
2020/12/18 06:50:52;;;;;;;7.28;1.65;;;;;;;6.17;87.56;100760.28;5078429;28;20051;-73
2020/12/18 06:53:18;;;;;;;6.85;1.63;;;;;;;6.00;87.39;100731.66;5077955;28;20056;-72
2020/12/18 06:55:45;;;;;;;7.88;2.03;;;;;;;6.16;87.63;100766.50;5078069;28;20060;-72
2020/12/18 06:58:17;;;;;;;13.60;2.53;;;;;;;6.18;87.70;100764.66;5077925;28;20792;-72
2020/12/18 07:00:45;;;;;;;9.23;1.95;;;;;;;6.04;87.53;100742.13;5076582;28;20445;-72
2020/12/18 07:03:38;;;;;;;5.50;1.45;;;;;;;6.10;87.88;100768.41;5077958;28;20110;-71
2020/12/18 07:06:07;;;;;;;7.22;1.90;;;;;;;6.05;87.87;100783.59;5078088;28;20064;-72
2020/12/18 07:08:35;;;;;;;10.40;1.70;;;;;;;6.13;87.94;100779.81;5079257;28;20048;-72
2020/12/18 07:11:13;;;;;;;6.18;1.73;;;;;;;6.09;87.72;100774.66;5079125;28;20426;-72
2020/12/18 07:13:47;;;;;;;9.50;1.70;;;;;;;6.09;88.19;100777.28;5080465;28;20049;-73
2020/12/18 07:16:18;;;;;;;8.13;1.55;;;;;;;6.10;88.36;100768.41;5078395;28;20094;-71
2020/12/18 07:18:45;;;;;;;;;;;;;;;6.13;88.24;100761.28;5077927;28;20051;-69
2020/12/18 07:21:13;;;;;;;6.22;1.95;;;;;;;6.17;87.99;100757.63;5077339;28;19966;-69
2020/12/18 07:23:42;;;;;;;8.20;1.52;;;;;;;6.19;87.81;100751.34;5077230;28;20655;-72
2020/12/18 07:26:10;;;;;;;5.47;1.92;;;;;;;6.20;87.97;100758.38;5076480;28;20044;-72
2020/12/18 07:28:39;;;;;;;5.88;1.73;;;;;;;6.19;87.99;100750.47;5077006;28;20049;-73
2020/12/18 07:31:15;;;;;;;7.55;1.95;;;;;;;6.21;87.85;100743.38;5076171;28;20114;-74
2020/12/18 07:33:42;;;;;;;8.13;2.03;;;;;;;6.30;87.91;100751.00;5077289;28;20121;-75
2020/12/18 07:36:09;;;;;;;5.13;1.70;;;;;;;6.28;87.78;100744.00;5076878;28;20052;-71
2020/12/18 07:38:36;;;;;;;5.50;1.70;;;;;;;6.24;88.26;100748.53;5075389;28;20053;-68
2020/12/18 07:41:05;;;;;;;9.07;1.70;;;;;;;6.21;88.14;100748.66;5076722;28;20049;-72
2020/12/18 07:43:33;;;;;;;6.65;1.70;;;;;;;6.13;88.27;100746.25;5076984;28;20122;-70
2020/12/18 07:46:06;;;;;;;8.85;1.63;;;;;;;6.16;88.19;100751.44;5076523;28;20084;-70
2020/12/18 07:48:38;;;;;;;5.38;1.73;;;;;;;6.20;88.46;100736.31;5076765;28;20055;-70
2020/12/18 07:51:15;;;;;;;6.03;1.55;;;;;;;6.24;88.16;100743.25;5076709;28;20052;-73
2020/12/18 07:53:43;;;;;;;13.05;1.83;;;;;;;6.26;87.91;100749.34;5076151;28;20436;-71
2020/12/18 07:56:13;;;;;;;5.00;1.40;;;;;;;6.25;87.71;100740.56;5074346;28;20049;-72
2020/12/18 07:59:02;;;;;;;9.15;1.70;;;;;;;6.27;87.94;100752.88;5076244;28;20074;-71
2020/12/18 08:01:35;;;;;;;8.73;2.05;;;;;;;6.25;88.19;100747.63;5076118;28;20052;-70
2020/12/18 08:04:03;;;;;;;6.43;1.70;;;;;;;6.14;87.73;100721.47;5076448;28;20044;-70
2020/12/18 08:06:32;;;;;;;5.50;2.00;;;;;;;6.33;87.95;100742.91;5076356;28;20242;-70
2020/12/18 08:09:04;;;;;;;7.03;1.70;;;;;;;6.36;87.93;100742.84;5076184;28;20346;-71
2020/12/18 08:11:32;;;;;;;6.70;1.85;;;;;;;6.41;87.68;100741.78;5074238;28;20055;-72
2020/12/18 08:14:00;;;;;;;11.27;1.85;;;;;;;6.42;87.45;100740.91;5075994;28;20049;-70
2020/12/18 08:16:31;;;;;;;6.07;1.58;;;;;;;6.45;87.19;100740.78;5073511;28;20063;-70
2020/12/18 08:19:03;;;;;;;7.38;1.55;;;;;;;6.43;87.20;100729.38;5075110;28;20121;-71
2020/12/18 08:21:31;;;;;;;9.35;1.67;;;;;;;6.59;86.96;100749.13;5070121;28;20465;-71
2020/12/18 08:24:07;;;;;;;5.22;1.67;;;;;;;6.58;87.03;100750.03;5056785;28;20059;-72
2020/12/18 08:26:46;;;;;;;9.57;1.40;;;;;;;6.61;87.14;100744.66;5073198;28;20426;-72
2020/12/18 08:29:13;;;;;;;6.20;1.50;;;;;;;6.56;87.29;100740.41;5072016;28;20041;-71
2020/12/18 08:31:42;;;;;;;6.63;1.55;;;;;;;6.72;86.61;100752.22;5073861;28;20153;-70
2020/12/18 08:34:20;;;;;;;6.57;2.10;;;;;;;6.74;86.50;100762.75;5075409;28;20107;-71
2020/12/18 08:36:47;;;;;;;6.00;1.75;;;;;;;6.71;86.45;100752.28;5073210;28;20044;-72
2020/12/18 08:39:15;;;;;;;6.03;1.30;;;;;;;6.74;86.68;100768.06;5074993;28;20062;-70
2020/12/18 08:41:46;;;;;;;8.13;1.90;;;;;;;6.74;86.48;100768.06;5075129;28;20048;-72
2020/12/18 08:44:16;;;;;;;8.30;1.40;;;;;;;6.73;86.59;100771.66;5075859;28;20131;-72
2020/12/18 08:46:42;;;;;;;11.25;1.80;;;;;;;6.75;86.30;100756.56;5074984;28;20048;-71
2020/12/18 08:49:27;;;;;;;7.80;1.60;;;;;;;6.71;86.57;100774.34;5074597;28;20157;-69
2020/12/18 08:51:55;;;;;;;10.05;2.00;;;;;;;6.77;86.57;100773.28;5073791;28;20449;-68
2020/12/18 08:54:27;;;;;;;7.47;1.88;;;;;;;6.75;86.67;100777.78;5075315;28;20422;-69
2020/12/18 08:57:26;;;;;;;10.20;1.92;;;;;;;6.73;86.73;100780.47;5075386;28;20319;-69
2020/12/18 09:00:07;;;;;;;7.85;1.42;;;;;;;6.68;86.76;100784.19;5073591;28;20327;-71
2020/12/18 09:02:38;;;;;;;10.25;1.80;;;;;;;6.63;87.03;100784.34;5073861;28;20132;-73
2020/12/18 09:05:14;;;;;;;10.02;1.90;;;;;;;6.60;86.96;100782.69;5075099;28;20114;-72
2020/12/18 09:07:43;;;;;;;8.20;2.10;;;;;;;6.63;87.01;100787.88;5074945;28;20123;-72
2020/12/18 09:10:10;;;;;;;4.40;1.60;;;;;;;6.59;87.16;100788.91;5074820;28;20045;-70
2020/12/18 09:12:39;;;;;;;7.88;1.70;;;;;;;6.65;86.90;100803.75;5073405;28;21025;-72
2020/12/18 09:15:21;;;;;;;5.85;1.50;;;;;;;6.71;86.60;100797.38;5074244;28;20052;-74
2020/12/18 09:18:00;;;;;;;11.30;2.38;;;;;;;6.72;86.67;100799.09;5073582;28;20170;-73
2020/12/18 09:20:36;;;;;;;8.35;1.90;;;;;;;6.68;86.82;100800.09;5071949;28;20071;-70
2020/12/18 09:23:09;;;;;;;2.50;1.52;;;;;;;6.63;87.34;100810.88;5075046;28;20068;-74
2020/12/18 09:25:38;;;;;;;5.60;1.63;;;;;;;6.70;87.01;100815.06;5074521;28;20051;-74
2020/12/18 09:28:10;;;;;;;7.68;1.55;;;;;;;6.69;86.89;100796.56;5074748;28;20078;-75
2020/12/18 09:30:37;;;;;;;6.90;1.38;;;;;;;6.74;87.10;100799.91;5075186;28;20040;-74
2020/12/18 09:33:27;;;;;;;8.50;1.73;;;;;;;6.84;86.72;100803.97;5074820;28;20048;-74
2020/12/18 09:36:07;;;;;;;6.32;1.42;;;;;;;6.97;86.21;100804.41;5065760;28;20053;-73
2020/12/18 09:38:34;;;;;;;7.22;1.83;;;;;;;7.03;86.09;100803.34;5072741;28;20102;-71
2020/12/18 09:41:02;;;;;;;4.72;1.50;;;;;;;7.15;86.09;100810.84;5074955;28;20048;-71
2020/12/18 09:43:29;;;;;;;6.80;1.88;;;;;;;7.13;85.83;100807.38;5072126;28;20422;-73
2020/12/18 09:45:56;;;;;;;5.28;1.63;;;;;;;7.18;86.01;100818.69;5075029;28;20110;-71
2020/12/18 09:48:23;;;;;;;7.88;1.80;;;;;;;7.29;85.21;100812.13;5074286;28;20327;-71
2020/12/18 09:50:51;;;;;;;8.13;1.77;;;;;;;7.28;84.76;100790.03;5074406;28;20056;-72
2020/12/18 09:53:17;;;;;;;10.40;2.35;;;;;;;7.33;85.10;100804.00;5074531;28;20048;-71
2020/12/18 09:55:43;;;;;;;9.05;1.63;;;;;;;7.36;84.66;100792.41;5074315;28;20052;-72
2020/12/18 09:58:09;;;;;;;4.82;1.70;;;;;;;7.52;84.65;100816.56;5072842;28;20126;-71
2020/12/18 10:00:36;;;;;;;6.68;1.60;;;;;;;7.64;84.24;100814.38;5073207;28;20052;-71
2020/12/18 10:03:03;;;;;;;8.15;1.83;;;;;;;7.74;83.52;100811.31;5074332;28;20064;-71
2020/12/18 10:05:29;;;;;;;7.68;1.50;;;;;;;7.73;83.91;100812.25;5071093;28;20048;-71
2020/12/18 10:07:56;;;;;;;6.05;1.52;;;;;;;7.83;83.43;100802.13;5072731;28;20052;-70
2020/12/18 10:10:22;;;;;;;9.80;1.60;;;;;;;7.83;83.54;100812.75;5074243;28;20044;-71
2020/12/18 10:12:48;;;;;;;5.30;1.38;;;;;;;7.87;83.39;100806.41;5071877;28;20056;-73
2020/12/18 10:15:15;;;;;;;4.78;1.50;;;;;;;7.89;83.55;100811.63;5074064;28;20048;-73
2020/12/18 10:17:41;;;;;;;4.22;1.30;;;;;;;8.04;82.74;100819.94;5073077;28;20045;-72
2020/12/18 10:20:07;;;;;;;6.82;1.90;;;;;;;8.11;82.55;100818.75;5074370;28;20044;-73
2020/12/18 10:22:33;;;;;;;5.38;1.60;;;;;;;8.22;81.40;100810.38;5072948;28;20048;-71
2020/12/18 10:24:59;;;;;;;8.93;1.23;;;;;;;8.23;81.58;100815.59;5074040;28;20625;-72
2020/12/18 10:27:26;;;;;;;4.45;1.40;;;;;;;8.36;81.64;100821.31;5074302;28;20135;-72
2020/12/18 10:29:54;;;;;;;6.40;1.90;;;;;;;8.50;80.57;100817.19;5074217;28;20044;-71
2020/12/18 10:32:24;;;;;;;8.13;1.58;;;;;;;8.55;80.28;100812.56;5072571;28;20376;-71
2020/12/18 10:34:50;;;;;;;4.68;1.40;;;;;;;8.61;79.90;100803.47;5071664;28;20129;-76
2020/12/18 10:37:16;;;;;;;6.57;1.38;;;;;;;8.70;79.84;100821.69;5074548;28;20064;-77
2020/12/18 10:39:43;;;;;;;5.50;1.08;;;;;;;8.70;79.79;100813.72;5073896;28;20047;-75
2020/12/18 10:42:09;;;;;;;8.00;1.50;;;;;;;8.56;79.42;100780.56;5067501;28;20044;-80
2020/12/18 10:44:37;;;;;;;4.82;1.55;;;;;;;8.87;79.28;100814.81;5073308;28;20041;-71
2020/12/18 10:47:03;;;;;;;4.57;1.33;;;;;;;8.87;78.93;100817.47;5072033;28;20048;-71
2020/12/18 10:49:31;;;;;;;7.10;1.30;;;;;;;8.98;78.79;100809.84;5069652;28;20056;-71
2020/12/18 10:51:57;;;;;;;5.10;1.23;;;;;;;8.98;79.12;100809.00;5073768;28;20417;-70
2020/12/18 10:54:23;;;;;;;4.47;1.52;;;;;;;9.03;78.25;100801.66;5074033;28;20040;-70
2020/12/18 10:57:02;;;;;;;4.05;1.30;;;;;;;9.13;78.76;100807.44;5074170;28;20131;-70
2020/12/18 10:59:29;;;;;;;6.28;1.17;;;;;;;9.18;77.66;100800.13;5072813;28;20048;-71
2020/12/18 11:01:58;;;;;;;5.28;1.30;;;;;;;9.20;78.07;100787.59;5073366;28;20113;-71
2020/12/18 11:04:25;;;;;;;5.80;1.30;;;;;;;9.19;76.77;100781.41;5076081;28;20040;-71
2020/12/18 11:06:52;;;;;;;3.72;0.98;;;;;;;9.29;77.00;100787.19;5075069;28;20052;-71
2020/12/18 11:09:19;;;;;;;6.20;1.17;;;;;;;9.30;77.17;100786.25;5077011;28;20044;-72
2020/12/18 11:11:49;;;;;;;5.95;1.08;;;;;;;9.30;77.34;100788.91;5077094;28;20061;-72
2020/12/18 11:14:15;;;;;;;5.93;1.20;;;;;;;9.31;76.79;100777.31;5075405;28;20057;-71
2020/12/18 11:16:41;;;;;;;5.15;1.40;;;;;;;9.38;76.65;100784.09;5076992;28;20051;-73
2020/12/18 11:19:09;;;;;;;4.50;1.52;;;;;;;9.41;76.50;100776.91;5076924;28;20113;-72
2020/12/18 11:21:37;;;;;;;6.57;1.38;;;;;;;9.39;76.07;100758.34;5076491;28;20691;-71
2020/12/18 11:24:03;;;;;;;3.38;1.25;;;;;;;9.44;75.66;100750.13;5076100;28;20056;-73
2020/12/18 11:26:30;;;;;;;8.32;1.30;;;;;;;9.53;75.55;100760.34;5075838;28;20075;-73
2020/12/18 11:28:56;;;;;;;5.00;1.20;;;;;;;9.55;74.68;100758.47;5076614;28;20402;-71
2020/12/18 11:31:22;;;;;;;4.60;1.00;;;;;;;9.63;74.64;100761.63;5076580;28;20052;-72
2020/12/18 11:33:48;;;;;;;7.20;1.50;;;;;;;9.67;74.76;100753.47;5076287;28;20449;-72
2020/12/18 11:36:14;;;;;;;3.85;0.90;;;;;;;9.67;74.32;100743.69;5078345;28;20056;-72
2020/12/18 11:38:40;;;;;;;8.35;1.35;;;;;;;9.78;73.85;100748.50;5078739;28;20082;-72
2020/12/18 11:41:07;;;;;;;6.07;2.08;;;;;;;9.87;73.11;100742.72;5078529;28;20048;-72